createdAt,value
2019-05-19T00:00:50.892Z,33.97
2019-05-19T00:03:21.912Z,39.27
2019-05-19T00:05:53.977Z,35.73
2019-05-19T00:08:24.941Z,36.83
2019-05-19T00:10:55.987Z,39.13
2019-05-19T00:13:27.006Z,36.43
2019-05-19T00:15:58.019Z,36.60
2019-05-19T00:18:28.983Z,37.37
2019-05-19T00:21:00.017Z,39.70
2019-05-19T00:23:31.098Z,37.27
2019-05-19T00:26:02.145Z,32.00
2019-05-19T00:28:33.112Z,35.33
2019-05-19T00:31:04.111Z,36.90
2019-05-19T00:33:35.582Z,35.63
2019-05-19T00:36:06.586Z,38.33
2019-05-19T00:38:37.617Z,42.80
2019-05-19T00:41:08.635Z,38.13
2019-05-19T00:43:39.954Z,38.43
2019-05-19T00:46:11.697Z,39.73
2019-05-19T00:48:43.029Z,38.33
2019-05-19T00:51:14.232Z,38.57
2019-05-19T00:53:47.067Z,41.00
2019-05-19T00:56:18.264Z,40.97
2019-05-19T00:58:49.732Z,38.93
2019-05-19T01:01:23.021Z,41.50
2019-05-19T01:03:54.068Z,41.07
2019-05-19T01:06:25.290Z,43.23
2019-05-19T01:08:56.310Z,46.20
2019-05-19T01:11:27.365Z,38.40
2019-05-19T01:13:58.383Z,44.67
2019-05-19T01:16:29.439Z,44.70
2019-05-19T01:19:00.378Z,46.63
2019-05-19T01:21:31.839Z,46.77
2019-05-19T01:24:03.225Z,41.33
2019-05-19T01:26:34.440Z,45.20
2019-05-19T01:29:05.434Z,44.20
2019-05-19T01:31:37.930Z,46.63
2019-05-19T01:34:09.958Z,39.50
2019-05-19T01:36:41.252Z,45.00
2019-05-19T01:39:12.977Z,42.63
2019-05-19T01:41:44.019Z,39.27
2019-05-19T01:44:16.488Z,37.10
2019-05-19T01:46:47.588Z,42.83
2019-05-19T01:49:18.541Z,43.37
2019-05-19T01:51:50.077Z,40.43
2019-05-19T01:54:20.838Z,38.03
2019-05-19T01:56:51.650Z,43.13
2019-05-19T01:59:23.783Z,38.17
2019-05-19T02:01:55.583Z,41.13
2019-05-19T02:04:27.587Z,38.47
2019-05-19T02:06:57.600Z,36.70
2019-05-19T02:09:27.778Z,41.10
2019-05-19T02:11:57.750Z,38.13
2019-05-19T02:14:27.635Z,42.33
2019-05-19T02:16:58.852Z,35.50
2019-05-19T02:19:28.659Z,34.00
2019-05-19T02:21:58.846Z,34.60
2019-05-19T02:24:28.686Z,34.60
2019-05-19T02:26:58.708Z,39.93
2019-05-19T02:29:28.891Z,37.03
2019-05-19T02:31:58.716Z,43.73
2019-05-19T02:34:28.920Z,32.27
2019-05-19T02:36:58.976Z,34.20
2019-05-19T02:39:29.264Z,31.70
2019-05-19T02:42:00.369Z,42.30
2019-05-19T02:44:32.651Z,32.97
2019-05-19T02:47:06.047Z,43.87
2019-05-19T02:49:39.126Z,32.40
2019-05-19T02:52:13.042Z,38.17
2019-05-19T02:54:43.864Z,36.73
2019-05-19T02:57:14.064Z,29.90
2019-05-19T02:59:48.238Z,32.20
2019-05-19T03:02:18.113Z,33.80
2019-05-19T03:04:50.160Z,29.20
2019-05-19T03:07:20.179Z,28.97
2019-05-19T03:09:50.576Z,35.33
2019-05-19T03:12:20.566Z,28.60
2019-05-19T03:14:50.562Z,28.67
2019-05-19T03:17:20.675Z,54.63
2019-05-19T03:19:51.031Z,46.20
2019-05-19T03:22:23.298Z,29.23
2019-05-19T03:24:53.234Z,45.00
2019-05-19T03:27:25.733Z,30.07
2019-05-19T03:29:58.085Z,40.87
2019-05-19T03:32:38.314Z,31.67
2019-05-19T03:35:16.280Z,24.00
2019-05-19T03:37:46.240Z,25.57
2019-05-19T03:40:22.155Z,24.53
2019-05-19T03:42:52.712Z,26.57
2019-05-19T03:45:22.789Z,30.90
2019-05-19T03:47:52.756Z,32.50
2019-05-19T03:50:25.452Z,25.30
2019-05-19T03:52:55.474Z,26.03
2019-05-19T03:55:25.419Z,28.07
2019-05-19T03:57:58.261Z,28.90
2019-05-19T04:00:28.275Z,27.40
2019-05-19T04:02:58.308Z,26.07
2019-05-19T04:05:31.462Z,25.83
2019-05-19T04:08:01.553Z,23.53
2019-05-19T04:10:32.518Z,24.50
2019-05-19T04:13:04.566Z,22.93
2019-05-19T04:15:34.599Z,21.70
2019-05-19T04:18:04.594Z,25.13
2019-05-19T04:20:35.590Z,20.23
2019-05-19T04:23:07.586Z,18.77
2019-05-19T04:25:37.419Z,17.57
2019-05-19T04:28:08.774Z,20.03
2019-05-19T04:30:40.026Z,19.63
2019-05-19T04:33:12.653Z,17.90
2019-05-19T04:35:45.111Z,17.60
2019-05-19T04:38:15.085Z,18.00
2019-05-19T04:40:45.202Z,18.47
2019-05-19T04:43:15.133Z,17.73
2019-05-19T04:45:45.177Z,17.90
2019-05-19T04:48:15.101Z,17.30
2019-05-19T04:50:45.137Z,17.03
2019-05-19T04:53:15.126Z,16.23
2019-05-19T04:55:45.173Z,15.37
2019-05-19T04:58:15.183Z,15.63
2019-05-19T05:00:45.200Z,18.17
2019-05-19T05:03:15.240Z,16.47
2019-05-19T05:05:46.774Z,17.00
2019-05-19T05:08:28.823Z,16.60
2019-05-19T05:10:50.666Z,14.97
2019-05-19T05:13:22.700Z,17.67
2019-05-19T05:15:58.897Z,16.90
2019-05-19T05:18:30.994Z,15.87
2019-05-19T05:21:01.321Z,15.10
2019-05-19T05:23:31.361Z,14.57
2019-05-19T05:26:03.789Z,15.00
2019-05-19T05:28:35.808Z,17.50
2019-05-19T05:31:05.822Z,15.87
2019-05-19T05:33:37.832Z,14.90
2019-05-19T05:36:07.993Z,14.47
2019-05-19T05:38:43.554Z,15.10
2019-05-19T05:41:15.873Z,16.13
2019-05-19T05:43:46.090Z,15.87
2019-05-19T05:46:17.494Z,15.43
2019-05-19T05:48:56.996Z,15.07
2019-05-19T05:51:32.727Z,14.33
2019-05-19T05:54:05.638Z,15.47
2019-05-19T05:56:38.507Z,14.73
2019-05-19T05:59:12.988Z,14.67
2019-05-19T06:01:45.695Z,16.07
2019-05-19T06:04:19.137Z,14.10
2019-05-19T06:06:48.996Z,15.13
2019-05-19T06:09:19.150Z,13.40
2019-05-19T06:11:51.222Z,14.30
2019-05-19T06:14:23.253Z,14.43
2019-05-19T06:16:55.234Z,12.20
2019-05-19T06:19:27.275Z,13.93
2019-05-19T06:21:59.812Z,13.27
2019-05-19T06:24:32.111Z,12.67
2019-05-19T06:27:06.304Z,12.80
2019-05-19T06:29:38.157Z,12.87
2019-05-19T06:32:20.354Z,13.10
2019-05-19T06:34:52.463Z,12.97
2019-05-19T06:37:22.827Z,13.03
2019-05-19T06:39:54.837Z,12.60
2019-05-19T06:42:26.785Z,12.20
2019-05-19T06:44:58.871Z,12.93
2019-05-19T06:47:30.870Z,12.13
2019-05-19T06:50:03.523Z,12.57
2019-05-19T06:52:35.864Z,13.30
2019-05-19T06:55:06.870Z,12.77
2019-05-19T06:57:46.970Z,13.47
2019-05-19T07:00:23.475Z,13.10
2019-05-19T07:02:53.916Z,14.33
2019-05-19T07:05:25.478Z,12.43
2019-05-19T07:07:55.934Z,12.60
2019-05-19T07:10:25.962Z,12.27
2019-05-19T07:12:55.992Z,12.33
2019-05-19T07:15:26.581Z,14.03
2019-05-19T07:18:03.667Z,11.87
2019-05-19T07:20:34.003Z,12.93
2019-05-19T07:23:04.391Z,13.60
2019-05-19T07:25:34.142Z,12.07
2019-05-19T07:28:04.590Z,12.97
2019-05-19T07:30:35.062Z,12.87
2019-05-19T07:33:10.306Z,12.13
2019-05-19T07:35:40.109Z,12.90
2019-05-19T07:38:09.752Z,12.83
2019-05-19T07:40:39.758Z,10.87
2019-05-19T07:43:11.164Z,12.27
2019-05-19T07:45:42.355Z,12.10
2019-05-19T07:48:12.289Z,11.60
2019-05-19T07:50:42.223Z,12.30
2019-05-19T07:53:12.337Z,11.53
2019-05-19T07:55:42.290Z,12.03
2019-05-19T07:58:14.203Z,10.77
2019-05-19T08:00:44.319Z,13.00
2019-05-19T08:03:22.881Z,12.60
2019-05-19T08:05:52.867Z,11.97
2019-05-19T08:08:35.079Z,11.93
2019-05-19T08:11:05.895Z,12.30
2019-05-19T08:13:35.921Z,10.40
2019-05-19T08:16:06.347Z,11.17
2019-05-19T08:18:37.001Z,11.20
2019-05-19T08:21:07.387Z,10.93
2019-05-19T08:23:38.114Z,10.60
2019-05-19T08:26:12.425Z,10.10
2019-05-19T08:28:42.601Z,11.07
2019-05-19T08:31:12.538Z,10.30
2019-05-19T08:33:43.670Z,10.13
2019-05-19T08:36:13.407Z,11.10
2019-05-19T08:38:44.586Z,10.67
2019-05-19T08:41:15.126Z,10.53
2019-05-19T08:43:45.657Z,10.80
2019-05-19T08:46:23.114Z,10.80
2019-05-19T08:48:53.565Z,10.03
2019-05-19T08:51:23.841Z,9.77
2019-05-19T08:53:56.146Z,9.33
2019-05-19T08:56:26.670Z,10.90
2019-05-19T08:59:01.772Z,9.60
2019-05-19T09:01:32.802Z,10.50
2019-05-19T09:04:13.247Z,12.53
2019-05-19T09:06:44.924Z,10.37
2019-05-19T09:09:21.935Z,10.70
2019-05-19T09:11:57.503Z,10.70
2019-05-19T09:14:34.778Z,10.50
2019-05-19T09:17:04.833Z,10.20
2019-05-19T09:19:36.671Z,10.23
2019-05-19T09:22:09.745Z,10.30
2019-05-19T09:24:39.501Z,10.40
2019-05-19T09:27:09.103Z,10.50
2019-05-19T09:29:40.461Z,11.10
2019-05-19T09:32:13.134Z,9.77
2019-05-19T09:34:42.658Z,11.40
2019-05-19T09:37:13.331Z,10.20
2019-05-19T09:39:43.419Z,10.73
2019-05-19T09:42:13.444Z,10.57
2019-05-19T09:44:43.497Z,9.47
2019-05-19T09:47:13.547Z,9.53
2019-05-19T09:49:43.541Z,8.63
2019-05-19T09:52:16.986Z,10.53
2019-05-19T09:54:46.019Z,9.87
2019-05-19T09:57:16.050Z,10.47
2019-05-19T09:59:46.137Z,9.60
2019-05-19T10:02:16.665Z,9.23
2019-05-19T10:04:46.463Z,10.23
2019-05-19T10:07:16.224Z,9.43
2019-05-19T10:10:17.054Z,8.80
2019-05-19T10:12:47.619Z,10.27
2019-05-19T10:15:17.710Z,9.73
2019-05-19T10:17:48.108Z,9.77
2019-05-19T10:20:18.571Z,10.30
2019-05-19T10:22:48.775Z,11.03
2019-05-19T10:25:22.901Z,10.60
2019-05-19T10:27:52.799Z,11.70
2019-05-19T10:30:22.797Z,9.73
2019-05-19T10:32:52.744Z,9.00
2019-05-19T10:35:22.780Z,10.07
2019-05-19T10:37:52.865Z,10.37
2019-05-19T10:40:22.688Z,9.93
2019-05-19T10:42:52.677Z,9.20
2019-05-19T10:45:25.362Z,9.93
2019-05-19T10:47:56.296Z,9.60
2019-05-19T10:50:26.741Z,8.70
2019-05-19T10:52:57.015Z,9.00
2019-05-19T10:55:36.280Z,10.00
2019-05-19T10:57:58.342Z,9.53
2019-05-19T11:00:28.810Z,8.73
2019-05-19T11:02:59.006Z,9.07
2019-05-19T11:05:28.819Z,8.93
2019-05-19T11:07:59.072Z,8.27
2019-05-19T11:10:28.965Z,9.20
2019-05-19T11:12:59.142Z,8.40
2019-05-19T11:15:29.099Z,8.40
2019-05-19T11:17:59.143Z,8.37
2019-05-19T11:20:29.122Z,8.67
2019-05-19T11:23:00.497Z,8.27
2019-05-19T11:25:34.105Z,8.37
2019-05-19T11:28:02.186Z,8.00
2019-05-19T11:30:31.990Z,7.63
2019-05-19T11:33:02.287Z,7.20
2019-05-19T11:35:32.364Z,7.90
2019-05-19T11:38:02.737Z,8.40
2019-05-19T11:40:32.694Z,9.27
2019-05-19T11:43:02.721Z,8.00
2019-05-19T11:45:33.060Z,7.97
2019-05-19T11:48:03.321Z,8.10
2019-05-19T11:50:33.280Z,7.67
2019-05-19T11:53:04.102Z,9.13
2019-05-19T11:55:34.308Z,8.10
2019-05-19T11:58:04.318Z,8.90
2019-05-19T12:00:34.127Z,8.80
2019-05-19T12:03:04.494Z,9.23
2019-05-19T12:05:34.793Z,8.43
2019-05-19T12:08:05.439Z,8.87
2019-05-19T12:10:35.530Z,8.93
2019-05-19T12:13:05.415Z,9.00
2019-05-19T12:15:35.829Z,9.60
2019-05-19T12:18:06.016Z,9.20
2019-05-19T12:20:35.864Z,9.20
2019-05-19T12:23:05.864Z,10.27
2019-05-19T12:25:35.930Z,9.40
2019-05-19T12:28:06.078Z,9.23
2019-05-19T12:30:36.035Z,9.30
2019-05-19T12:33:06.356Z,8.10
2019-05-19T12:35:36.121Z,8.90
2019-05-19T12:38:06.412Z,9.37
2019-05-19T12:40:36.602Z,8.33
2019-05-19T12:43:06.668Z,9.57
2019-05-19T12:45:39.703Z,8.67
2019-05-19T12:48:13.759Z,9.80
2019-05-19T12:50:43.647Z,9.30
2019-05-19T12:53:13.761Z,9.07
2019-05-19T12:55:46.718Z,9.10
2019-05-19T12:58:16.707Z,8.80
2019-05-19T13:00:46.790Z,8.10
2019-05-19T13:03:16.696Z,7.53
2019-05-19T13:05:46.758Z,8.73
2019-05-19T13:08:19.128Z,9.13
2019-05-19T13:10:49.591Z,9.30
2019-05-19T13:13:19.573Z,8.50
2019-05-19T13:15:50.151Z,9.53
2019-05-19T13:18:20.260Z,9.00
2019-05-19T13:20:50.347Z,9.73
2019-05-19T13:23:20.645Z,9.30
2019-05-19T13:25:51.210Z,9.70
2019-05-19T13:28:21.601Z,9.20
2019-05-19T13:30:51.871Z,8.43
2019-05-19T13:33:21.937Z,9.47
2019-05-19T13:35:52.315Z,9.23
2019-05-19T13:38:22.695Z,9.57
2019-05-19T13:40:52.989Z,9.17
2019-05-19T13:43:26.331Z,9.43
2019-05-19T13:45:56.022Z,9.13
2019-05-19T13:48:26.085Z,8.60
2019-05-19T13:50:56.032Z,9.53
2019-05-19T13:53:26.054Z,9.00
2019-05-19T13:55:56.146Z,9.77
2019-05-19T13:58:26.083Z,9.10
2019-05-19T14:00:56.489Z,10.33
2019-05-19T14:03:26.912Z,9.93
2019-05-19T14:05:57.510Z,8.97
2019-05-19T14:08:27.593Z,7.90
2019-05-19T14:10:57.564Z,9.67
2019-05-19T14:13:27.554Z,8.97
2019-05-19T14:15:57.570Z,8.80
2019-05-19T14:18:27.713Z,9.27
2019-05-19T14:20:57.763Z,9.07
2019-05-19T14:23:29.949Z,9.37
2019-05-19T14:26:00.642Z,8.20
2019-05-19T14:28:38.980Z,8.60
2019-05-19T14:31:09.254Z,8.63
2019-05-19T14:33:39.277Z,8.93
2019-05-19T14:36:09.286Z,9.20
2019-05-19T14:39:05.247Z,9.00
2019-05-19T14:41:38.721Z,9.30
2019-05-19T14:44:09.361Z,9.40
2019-05-19T14:46:39.485Z,8.00
2019-05-19T14:49:09.709Z,8.13
2019-05-19T14:51:40.198Z,8.53
2019-05-19T14:54:10.459Z,9.47
2019-05-19T14:56:40.484Z,8.27
2019-05-19T14:59:10.481Z,8.60
2019-05-19T15:01:40.537Z,9.17
2019-05-19T15:04:10.555Z,8.13
2019-05-19T15:06:40.920Z,9.20
2019-05-19T15:09:12.546Z,7.57
2019-05-19T15:11:42.337Z,8.87
2019-05-19T15:14:12.351Z,7.90
2019-05-19T15:16:43.039Z,8.33
2019-05-19T15:19:13.014Z,8.60
2019-05-19T15:21:42.996Z,8.80
2019-05-19T15:24:18.591Z,8.47
2019-05-19T15:26:48.425Z,8.30
2019-05-19T15:29:18.433Z,8.70
2019-05-19T15:31:48.685Z,8.80
2019-05-19T15:34:19.022Z,8.70
2019-05-19T15:36:49.124Z,8.30
2019-05-19T15:39:20.530Z,7.80
2019-05-19T15:41:50.676Z,7.73
2019-05-19T15:44:22.717Z,9.13
2019-05-19T15:46:52.862Z,13.53
2019-05-19T15:49:24.735Z,9.10
2019-05-19T15:52:03.049Z,8.87
2019-05-19T15:54:30.614Z,9.73
2019-05-19T15:57:00.847Z,8.80
2019-05-19T15:59:30.830Z,10.07
2019-05-19T16:02:01.262Z,8.30
2019-05-19T16:04:31.886Z,9.27
2019-05-19T16:07:01.932Z,9.10
2019-05-19T16:09:33.318Z,8.73
2019-05-19T16:12:03.300Z,9.60
2019-05-19T16:14:33.891Z,9.80
2019-05-19T16:17:03.933Z,9.00
2019-05-19T16:19:36.059Z,8.63
2019-05-19T16:22:05.991Z,8.70
2019-05-19T16:24:35.975Z,9.07
2019-05-19T16:27:06.101Z,8.73
2019-05-19T16:29:36.516Z,8.87
2019-05-19T16:32:06.454Z,9.63
2019-05-19T16:34:37.570Z,9.27
2019-05-19T16:37:07.549Z,9.67
2019-05-19T16:39:37.517Z,9.10
2019-05-19T16:42:09.081Z,9.77
2019-05-19T16:44:39.094Z,7.53
2019-05-19T16:47:11.591Z,8.47
2019-05-19T16:49:41.664Z,7.73
2019-05-19T16:52:11.946Z,9.10
2019-05-19T16:54:44.978Z,9.30
2019-05-19T16:57:15.529Z,9.43
2019-05-19T16:59:46.178Z,9.03
2019-05-19T17:02:16.016Z,9.70
2019-05-19T17:04:46.150Z,7.87
2019-05-19T17:07:15.780Z,9.27
2019-05-19T17:09:45.768Z,8.43
2019-05-19T17:12:17.830Z,8.70
2019-05-19T17:14:49.209Z,8.57
2019-05-19T17:17:19.351Z,8.67
2019-05-19T17:19:49.356Z,8.20
2019-05-19T17:22:26.470Z,9.03
2019-05-19T17:25:00.427Z,9.03
2019-05-19T17:27:31.743Z,10.07
2019-05-19T17:30:03.978Z,8.27
2019-05-19T17:32:34.211Z,7.83
2019-05-19T17:35:07.225Z,8.50
2019-05-19T17:37:37.812Z,9.47
2019-05-19T17:40:08.816Z,9.53
2019-05-19T17:42:39.443Z,9.37
2019-05-19T17:45:12.415Z,10.17
2019-05-19T17:47:42.851Z,9.73
2019-05-19T17:50:13.527Z,9.20
2019-05-19T17:52:43.575Z,10.03
2019-05-19T17:55:13.523Z,10.93
2019-05-19T17:57:45.568Z,11.20
2019-05-19T18:00:20.119Z,11.40
2019-05-19T18:02:50.523Z,11.13
2019-05-19T18:05:20.582Z,9.80
2019-05-19T18:07:51.999Z,11.30
2019-05-19T18:10:24.106Z,9.47
2019-05-19T18:12:54.016Z,10.50
2019-05-19T18:15:28.450Z,10.20
2019-05-19T18:17:58.703Z,10.20
2019-05-19T18:20:28.803Z,10.47
2019-05-19T18:22:59.529Z,10.60
2019-05-19T18:25:30.169Z,10.00
2019-05-19T18:28:02.119Z,11.03
2019-05-19T18:30:32.210Z,10.87
2019-05-19T18:33:02.623Z,11.60
2019-05-19T18:35:33.616Z,10.37
2019-05-19T18:38:03.332Z,11.70
2019-05-19T18:40:33.407Z,10.10
2019-05-19T18:43:03.272Z,11.53
2019-05-19T18:45:33.668Z,13.17
2019-05-19T18:48:03.791Z,11.83
2019-05-19T18:50:33.710Z,13.50
2019-05-19T18:53:03.741Z,13.63
2019-05-19T18:55:33.846Z,14.97
2019-05-19T18:58:04.727Z,13.20
2019-05-19T19:00:36.458Z,12.80
2019-05-19T19:03:06.959Z,12.27
2019-05-19T19:05:37.024Z,13.90
2019-05-19T19:08:06.987Z,13.47
2019-05-19T19:10:38.033Z,14.00
2019-05-19T19:13:09.448Z,14.20
2019-05-19T19:15:40.096Z,15.17
2019-05-19T19:18:09.862Z,13.80
2019-05-19T19:20:39.982Z,14.20
2019-05-19T19:23:10.079Z,11.77
2019-05-19T19:25:39.998Z,13.87
2019-05-19T19:28:11.480Z,12.23
2019-05-19T19:30:44.949Z,12.73
2019-05-19T19:33:19.516Z,12.97
2019-05-19T19:35:50.259Z,12.83
2019-05-19T19:38:20.206Z,13.33
2019-05-19T19:40:50.050Z,13.90
2019-05-19T19:43:20.137Z,13.60
2019-05-19T19:45:49.742Z,13.50
2019-05-19T19:48:24.019Z,15.40
2019-05-19T19:50:54.334Z,13.63
2019-05-19T19:53:32.395Z,15.23
2019-05-19T19:56:02.658Z,15.00
2019-05-19T19:58:33.706Z,14.90
2019-05-19T20:01:04.121Z,15.20
2019-05-19T20:03:39.388Z,16.03
2019-05-19T20:06:05.750Z,14.37
2019-05-19T20:08:35.829Z,13.57
2019-05-19T20:11:08.828Z,15.00
2019-05-19T20:13:38.780Z,15.33
2019-05-19T20:16:14.774Z,16.87
2019-05-19T20:19:03.791Z,16.30
2019-05-19T20:21:33.852Z,16.10
2019-05-19T20:24:03.891Z,16.50
2019-05-19T20:26:33.602Z,15.63
2019-05-19T20:29:03.554Z,16.27
2019-05-19T20:31:36.901Z,16.17
2019-05-19T20:34:07.004Z,17.37
2019-05-19T20:36:38.523Z,16.77
2019-05-19T20:39:08.541Z,15.33
2019-05-19T20:41:38.916Z,16.97
2019-05-19T20:44:12.388Z,17.27
2019-05-19T20:46:42.407Z,16.87
2019-05-19T20:49:12.165Z,17.77
2019-05-19T20:51:42.370Z,15.70
2019-05-19T20:54:12.474Z,16.77
2019-05-19T20:56:43.039Z,17.90
2019-05-19T20:59:13.504Z,17.43
2019-05-19T21:01:48.601Z,17.17
2019-05-19T21:04:19.139Z,17.53
2019-05-19T21:06:49.160Z,17.03
2019-05-19T21:09:19.157Z,18.83
2019-05-19T21:11:49.123Z,18.97
2019-05-19T21:14:19.158Z,18.53
2019-05-19T21:16:49.805Z,17.80
2019-05-19T21:19:22.942Z,19.27
2019-05-19T21:21:53.601Z,19.73
2019-05-19T21:24:23.629Z,18.03
2019-05-19T21:26:53.648Z,21.13
2019-05-19T21:29:23.394Z,20.30
2019-05-19T21:31:53.671Z,20.87
2019-05-19T21:34:23.405Z,21.03
2019-05-19T21:36:53.872Z,20.30
2019-05-19T21:39:24.911Z,21.37
2019-05-19T21:41:54.733Z,19.80
2019-05-19T21:44:25.967Z,22.70
2019-05-19T21:47:00.353Z,21.77
2019-05-19T21:49:32.789Z,21.20
2019-05-19T21:52:05.363Z,22.00
2019-05-19T21:54:35.502Z,22.63
2019-05-19T21:57:05.957Z,22.20
2019-05-19T21:59:36.414Z,23.57
2019-05-19T22:02:06.435Z,22.50
2019-05-19T22:04:36.495Z,22.83
2019-05-19T22:07:12.071Z,22.40
2019-05-19T22:09:41.920Z,21.23
2019-05-19T22:12:11.941Z,21.67
2019-05-19T22:14:41.982Z,23.40
2019-05-19T22:17:13.201Z,22.27
2019-05-19T22:19:44.530Z,23.07
2019-05-19T22:22:14.715Z,22.90
2019-05-19T22:24:44.682Z,24.17
2019-05-19T22:27:15.038Z,24.47
2019-05-19T22:29:45.276Z,23.00
2019-05-19T22:32:15.251Z,23.47
2019-05-19T22:34:45.287Z,24.20
2019-05-19T22:37:15.091Z,23.80
2019-05-19T22:39:45.211Z,23.90
2019-05-19T22:42:15.316Z,23.97
2019-05-19T22:44:45.684Z,28.90
2019-05-19T22:47:15.706Z,23.90
2019-05-19T22:49:45.777Z,24.43
2019-05-19T22:52:15.895Z,24.20
2019-05-19T22:54:45.946Z,25.47
2019-05-19T22:57:18.019Z,25.17
2019-05-19T22:59:47.435Z,23.97
2019-05-19T23:02:17.250Z,24.90
2019-05-19T23:04:46.974Z,23.93
2019-05-19T23:07:16.930Z,25.73
2019-05-19T23:09:46.932Z,24.50
2019-05-19T23:12:16.935Z,24.93
2019-05-19T23:14:47.881Z,25.90
2019-05-19T23:17:17.943Z,27.10
2019-05-19T23:19:48.586Z,25.70
2019-05-19T23:22:18.376Z,25.33
2019-05-19T23:24:48.401Z,28.70
2019-05-19T23:27:18.419Z,28.37
2019-05-19T23:29:48.668Z,30.00
2019-05-19T23:32:18.991Z,29.30
2019-05-19T23:34:49.441Z,29.07
2019-05-19T23:37:19.640Z,30.23
2019-05-19T23:39:49.689Z,28.73
2019-05-19T23:42:20.045Z,28.80
2019-05-19T23:44:50.445Z,27.20
2019-05-19T23:47:20.222Z,29.47
2019-05-19T23:49:50.273Z,28.70
2019-05-19T23:52:20.255Z,31.67
2019-05-19T23:54:50.296Z,26.40
2019-05-19T23:57:20.182Z,28.73
2019-05-19T23:59:51.519Z,27.83
